LFST/SXB METAR and TAF weather

Enter ICAO airport designator
Station Type Date Time Source
LFST METAR 2019/08/25 02:30 UTC NOAA

LFST 250230Z AUTO 00000KT 8000 NSC 15/13 Q1018 TEMPO 1000 BCFG


Station Type Date Time Source
LFST Decoded METAR 2019/08/25 02:30 UTC NOAA

Station name not available
Aug 24, 2019 - 10:30 PM EDT / 2019.08.25 0230 UTC
Wind: Calm:0
Visibility: 4 mile(s):0
Temperature: 59 F (15 C)
Dew Point: 55 F (13 C)
Relative Humidity: 87%
Pressure (altimeter): 30.06 in. Hg (1018 hPa)
ob: LFST 250230Z AUTO 00000KT 8000 NSC 15/13 Q1018 TEMPO 1000 BCFG
cycle: 2

Station Type Date Time Source
LFST TAF 2019/08/24 18:21 UTC NOAA

TAF TAF LFST 241700Z 2418/2518 VRB03KT CAVOK PROB40
TEMPO 2503/2507 4000 BR PROB30
TEMPO 2503/2506 1000 BCFG
TEMPO 2509/2514 FEW030 PROB40
TEMPO 2515/2518 15006KT

Example: see airport list